Airport View

Enter AWOS ICAO identifier for current METAR.

ex. KFNL

KLHM 250535Z AUTO 33004KT 7SM CLR 12/12 A3004 RMK AO1

25 Nov 2017 05:47

Frequency: 124.25

Phone: 916-645-0698

Other Area AWOS: KAUN - KBAB - KMCC - KMYV

TAF COR KBAB 230053Z 2300/2401 VRB06KT 9999 SCT200 QNH3009INS BECMG 2310/2311 VRB06KT 6000 BR SCT120 QNH3010INS BECMG 2315/2316 VRB06KT 9999 NSW SCT200 QNH3011INS TX15/2300Z TN09/2312Z LAST NO AMDS AFT 2301 NEXT 2711